createdAt,value
2023-08-02T00:01:49.189Z,63067.53
2023-08-02T00:04:17.940Z,63057.28
2023-08-02T00:06:46.213Z,63068.06
2023-08-02T00:09:14.494Z,63059.91
2023-08-02T00:11:43.991Z,63070.22
2023-08-02T00:14:12.147Z,63068.06
2023-08-02T00:16:40.611Z,63047.50
2023-08-02T00:19:09.582Z,63058.22
2023-08-02T00:21:37.679Z,63052.78
2023-08-02T00:24:06.455Z,63054.53
2023-08-02T00:26:34.525Z,63060.97
2023-08-02T00:29:04.054Z,63062.56
2023-08-02T00:31:32.145Z,63052.81
2023-08-02T00:34:00.453Z,63053.91
2023-08-02T00:36:28.737Z,63048.41
2023-08-02T00:38:56.991Z,63033.88
2023-08-02T00:41:25.140Z,63019.06
2023-08-02T00:43:53.236Z,63015.88
2023-08-02T00:46:22.767Z,63023.38
2023-08-02T00:48:51.137Z,63022.94
2023-08-02T00:51:21.838Z,63030.00
2023-08-02T00:53:49.940Z,63052.22
2023-08-02T00:56:18.177Z,63063.16
2023-08-02T00:58:46.383Z,63072.84
2023-08-02T01:01:14.661Z,63068.72
2023-08-02T01:03:46.285Z,63074.59
2023-08-02T01:06:22.284Z,63086.56
2023-08-02T01:08:56.737Z,63096.91
2023-08-02T01:11:29.387Z,63106.16
2023-08-02T01:13:59.477Z,63120.28
2023-08-02T01:16:32.845Z,63114.94
2023-08-02T01:19:02.980Z,63132.31
2023-08-02T01:21:32.463Z,63143.25
2023-08-02T01:24:00.729Z,63144.34
2023-08-02T01:26:31.834Z,63136.66
2023-08-02T01:29:08.096Z,63156.28
2023-08-02T01:31:38.431Z,63153.13
2023-08-02T01:34:07.347Z,63163.97
2023-08-02T01:36:36.894Z,63178.00
2023-08-02T01:39:05.158Z,63181.25
2023-08-02T01:41:33.365Z,63165.44
2023-08-02T01:44:01.490Z,63161.72
2023-08-02T01:46:29.570Z,63154.59
2023-08-02T01:48:57.728Z,63139.94
2023-08-02T01:51:26.529Z,63137.19
2023-08-02T01:53:55.987Z,63132.31
2023-08-02T01:56:24.050Z,63125.28
2023-08-02T01:58:52.126Z,63126.78
2023-08-02T02:01:20.272Z,63110.56
2023-08-02T02:03:48.523Z,63108.88
2023-08-02T02:06:16.640Z,63101.81
2023-08-02T02:08:45.117Z,63091.53
2023-08-02T02:11:14.602Z,63090.88
2023-08-02T02:13:42.769Z,63088.75
2023-08-02T02:16:10.911Z,63084.34
2023-08-02T02:18:38.997Z,63071.88
2023-08-02T02:21:07.111Z,63064.84
2023-08-02T02:23:35.218Z,63058.81
2023-08-02T02:26:03.339Z,63060.38
2023-08-02T02:28:32.832Z,63047.44
2023-08-02T02:31:00.983Z,63053.31
2023-08-02T02:33:29.123Z,63046.91
2023-08-02T02:35:57.244Z,63057.19
2023-08-02T02:38:25.294Z,63051.19
2023-08-02T02:40:53.388Z,63042.50
2023-08-02T02:43:21.432Z,63030.56
2023-08-02T02:45:52.348Z,63027.25
2023-08-02T02:48:20.437Z,63024.06
2023-08-02T02:50:48.536Z,63031.56
2023-08-02T02:53:17.749Z,63019.13
2023-08-02T02:55:45.891Z,63036.38
2023-08-02T02:58:14.066Z,63026.09
2023-08-02T03:00:42.258Z,63022.41
2023-08-02T03:03:11.850Z,63003.31
2023-08-02T03:05:40.897Z,63000.09
2023-08-02T03:08:09.000Z,62996.88
2023-08-02T03:10:36.050Z,63000.09
2023-08-02T03:13:04.168Z,63007.03
2023-08-02T03:15:32.265Z,62983.28
2023-08-02T03:18:00.429Z,62980.88
2023-08-02T03:20:29.977Z,62986.97
2023-08-02T03:22:58.058Z,62988.00
2023-08-02T03:25:26.102Z,62964.75
2023-08-02T03:27:54.234Z,62984.22
2023-08-02T03:30:22.301Z,62968.50
2023-08-02T03:32:50.523Z,62973.41
2023-08-02T03:35:18.839Z,62975.00
2023-08-02T03:37:48.373Z,62965.91
2023-08-02T03:40:16.570Z,62965.22
2023-08-02T03:42:44.641Z,62975.63
2023-08-02T03:45:12.949Z,62970.13
2023-08-02T03:47:41.041Z,62971.75
2023-08-02T03:50:10.016Z,62967.41
2023-08-02T03:52:38.131Z,62965.84
2023-08-02T03:55:08.556Z,62969.03
2023-08-02T03:57:36.616Z,62970.13
2023-08-02T04:00:05.527Z,62972.25
2023-08-02T04:02:33.887Z,62966.88
2023-08-02T04:05:02.024Z,62963.66
2023-08-02T04:07:30.112Z,62960.38
2023-08-02T04:09:58.203Z,62959.25
2023-08-02T04:12:27.745Z,62959.84
2023-08-02T04:14:56.552Z,62965.78
2023-08-02T04:17:26.923Z,62958.22
2023-08-02T04:19:55.118Z,62961.50
2023-08-02T04:22:23.335Z,62959.31
2023-08-02T04:24:51.467Z,62962.56
2023-08-02T04:27:19.575Z,62961.50
2023-08-02T04:29:50.739Z,62965.22
2023-08-02T04:32:18.916Z,62962.44
2023-08-02T04:34:47.083Z,62954.91
2023-08-02T04:37:15.222Z,62953.41
2023-08-02T04:39:43.301Z,62948.94
2023-08-02T04:42:11.405Z,62955.44
2023-08-02T04:44:39.459Z,62966.28
2023-08-02T04:47:08.979Z,62957.63
2023-08-02T04:49:37.568Z,62964.16
2023-08-02T04:52:06.566Z,62952.19
2023-08-02T04:54:34.691Z,62956.06
2023-08-02T04:57:02.812Z,62958.16
2023-08-02T04:59:30.935Z,62964.03
2023-08-02T05:01:59.072Z,62957.56
2023-08-02T05:04:28.623Z,62939.69
2023-08-02T05:06:56.808Z,62955.97
2023-08-02T05:09:24.987Z,62968.50
2023-08-02T05:11:53.101Z,62974.47
2023-08-02T05:14:21.193Z,62974.41
2023-08-02T05:16:49.266Z,62978.84
2023-08-02T05:19:17.438Z,62972.34
2023-08-02T05:21:46.878Z,62971.28
2023-08-02T05:24:14.972Z,62981.53
2023-08-02T05:26:43.029Z,62989.22
2023-08-02T05:29:11.116Z,62990.31
2023-08-02T05:31:39.183Z,62991.34
2023-08-02T05:34:07.325Z,62986.44
2023-08-02T05:36:35.424Z,62992.41
2023-08-02T05:39:05.190Z,62991.34
2023-08-02T05:41:33.277Z,62996.78
2023-08-02T05:44:02.675Z,62998.41
2023-08-02T05:46:32.239Z,63002.75
2023-08-02T05:49:00.327Z,63007.09
2023-08-02T05:51:28.425Z,63003.31
2023-08-02T05:53:56.528Z,63013.53
2023-08-02T05:56:26.244Z,63016.34
2023-08-02T05:58:54.319Z,63018.59
2023-08-02T06:01:22.463Z,63022.41
2023-08-02T06:03:50.538Z,63024.50
2023-08-02T06:06:18.761Z,63027.84
2023-08-02T06:08:48.534Z,63029.41
2023-08-02T06:11:16.711Z,63041.38
2023-08-02T06:13:46.219Z,63046.28
2023-08-02T06:16:14.366Z,63047.44
2023-08-02T06:18:42.515Z,63053.38
2023-08-02T06:21:10.608Z,63050.69
2023-08-02T06:23:38.725Z,63056.63
2023-08-02T06:26:06.872Z,63066.97
2023-08-02T06:28:35.463Z,63070.72
2023-08-02T06:31:04.963Z,63051.19
2023-08-02T06:33:33.079Z,63075.13
2023-08-02T06:36:01.180Z,63083.22
2023-08-02T06:38:29.225Z,63094.25
2023-08-02T06:40:58.486Z,63104.16
2023-08-02T06:43:26.624Z,63112.72
2023-08-02T06:45:54.678Z,63133.94
2023-08-02T06:48:25.976Z,63127.47
2023-08-02T06:50:54.720Z,63132.78
2023-08-02T06:53:23.416Z,63126.31
2023-08-02T06:55:51.570Z,63139.94
2023-08-02T06:58:19.729Z,63142.75
2023-08-02T07:00:47.884Z,63148.16
2023-08-02T07:03:15.978Z,63159.41
2023-08-02T07:05:45.627Z,63180.25
2023-08-02T07:08:13.677Z,63188.47
2023-08-02T07:10:41.774Z,63189.00
2023-08-02T07:13:09.917Z,63205.91
2023-08-02T07:15:37.994Z,63207.53
2023-08-02T07:18:06.093Z,63224.91
2023-08-02T07:20:34.252Z,63233.75
2023-08-02T07:23:03.744Z,63252.75
2023-08-02T07:25:31.875Z,63247.41
2023-08-02T07:28:00.053Z,63247.81
2023-08-02T07:30:28.451Z,63255.06
2023-08-02T07:32:56.775Z,63277.75
2023-08-02T07:35:25.035Z,63292.56
2023-08-02T07:37:53.175Z,63309.00
2023-08-02T07:40:22.819Z,63316.53
2023-08-02T07:42:50.936Z,63318.25
2023-08-02T07:45:18.980Z,63322.50
2023-08-02T07:47:47.154Z,63318.75
2023-08-02T07:50:15.367Z,63320.38
2023-08-02T07:52:43.536Z,63325.84
2023-08-02T07:55:11.607Z,63325.72
2023-08-02T07:57:41.124Z,63335.09
2023-08-02T08:00:10.450Z,63348.16
2023-08-02T08:02:38.614Z,63366.19
2023-08-02T08:05:07.687Z,63373.84
2023-08-02T08:07:35.873Z,63392.41
2023-08-02T08:10:04.127Z,63390.22
2023-08-02T08:12:32.294Z,63387.06
2023-08-02T08:15:01.822Z,63406.06
2023-08-02T08:17:29.952Z,63413.09
2023-08-02T08:19:58.132Z,63416.38
2023-08-02T08:22:30.180Z,63419.16
2023-08-02T08:24:58.384Z,63419.16
2023-08-02T08:27:26.735Z,63425.75
2023-08-02T08:29:54.996Z,63429.53
2023-08-02T08:32:28.566Z,63444.72
2023-08-02T08:34:58.082Z,63441.50
2023-08-02T08:37:26.709Z,63438.88
2023-08-02T08:40:11.892Z,63443.13
2023-08-02T08:42:50.150Z,63449.66
2023-08-02T08:45:21.027Z,63456.28
2023-08-02T08:47:51.516Z,63465.53
2023-08-02T08:50:22.087Z,63466.06
2023-08-02T08:52:52.944Z,63467.81
2023-08-02T08:55:21.873Z,63474.25
2023-08-02T08:57:51.735Z,63474.25
2023-08-02T09:00:20.457Z,63473.81
2023-08-02T09:02:51.125Z,63487.88
2023-08-02T09:05:19.368Z,63490.09
2023-08-02T09:07:47.546Z,63482.50
2023-08-02T09:10:15.646Z,63489.53
2023-08-02T09:12:47.808Z,63484.13
2023-08-02T09:15:17.343Z,63488.47
2023-08-02T09:17:47.656Z,63494.47
2023-08-02T09:20:19.376Z,63502.75
2023-08-02T09:22:47.776Z,63514.25
2023-08-02T09:25:24.037Z,63540.97
2023-08-02T09:27:53.599Z,63542.59
2023-08-02T09:30:29.609Z,63556.88
2023-08-02T09:33:02.444Z,63563.91
2023-08-02T09:35:34.235Z,63580.25
2023-08-02T09:38:02.439Z,63594.50
2023-08-02T09:40:55.033Z,63608.22
2023-08-02T09:43:26.370Z,63631.66
2023-08-02T09:45:54.561Z,63630.63
2023-08-02T09:48:35.797Z,63637.16
2023-08-02T09:51:05.512Z,63631.16
2023-08-02T09:53:34.084Z,63629.03
2023-08-02T09:56:04.399Z,63657.47
2023-08-02T09:58:32.663Z,63676.56
2023-08-02T10:01:03.605Z,63688.53
2023-08-02T10:03:34.316Z,63690.72
2023-08-02T10:06:07.921Z,63701.13
2023-08-02T10:08:37.871Z,63698.94
2023-08-02T10:11:07.990Z,63707.69
2023-08-02T10:13:41.011Z,63720.31
2023-08-02T10:16:12.328Z,63734.06
2023-08-02T10:18:42.955Z,63751.47
2023-08-02T10:21:14.797Z,63772.22
2023-08-02T10:23:43.868Z,63760.81
2023-08-02T10:26:12.407Z,63769.03
2023-08-02T10:28:42.161Z,63799.66
2023-08-02T10:31:11.851Z,63830.38
2023-08-02T10:33:40.117Z,63826.53
2023-08-02T10:36:09.743Z,63869.78
2023-08-02T10:38:59.917Z,63879.69
2023-08-02T10:41:28.957Z,63859.97
2023-08-02T10:44:14.518Z,63837.50
2023-08-02T10:46:43.300Z,63882.97
2023-08-02T10:49:40.326Z,63899.91
2023-08-02T10:52:25.268Z,63880.28
2023-08-02T10:55:16.509Z,63951.47
2023-08-02T10:58:10.092Z,63933.88
2023-08-02T11:00:39.760Z,63909.81
2023-08-02T11:03:08.014Z,63897.19
2023-08-02T11:05:41.936Z,63911.44
2023-08-02T11:08:10.850Z,63920.81
2023-08-02T11:10:54.898Z,63949.81
2023-08-02T11:13:24.047Z,63963.03
2023-08-02T11:16:03.133Z,63948.19
2023-08-02T11:18:32.519Z,63957.50
2023-08-02T11:21:09.568Z,63938.78
2023-08-02T11:23:39.424Z,63904.91
2023-08-02T11:26:14.590Z,63896.63
2023-08-02T11:28:44.609Z,63883.03
2023-08-02T11:31:13.005Z,63883.03
2023-08-02T11:33:41.697Z,63884.09
2023-08-02T11:36:10.437Z,63890.66
2023-08-02T11:38:39.109Z,63896.69
2023-08-02T11:41:18.667Z,63897.72
2023-08-02T11:43:47.238Z,63894.94
2023-08-02T11:46:16.936Z,63902.63
2023-08-02T11:48:45.372Z,63904.28
2023-08-02T11:51:14.584Z,63902.19
2023-08-02T11:53:57.281Z,63889.56
2023-08-02T11:56:28.212Z,63892.84
2023-08-02T11:58:57.117Z,63903.31
2023-08-02T12:01:25.774Z,63912.56
2023-08-02T12:03:55.377Z,63922.38
2023-08-02T12:06:24.162Z,63928.94
2023-08-02T12:08:53.747Z,63921.81
2023-08-02T12:11:22.404Z,63905.44
2023-08-02T12:13:52.201Z,63923.94
2023-08-02T12:16:21.720Z,63919.63
2023-08-02T12:18:57.280Z,63902.69
2023-08-02T12:21:26.406Z,63910.94
2023-08-02T12:23:55.438Z,63936.69
2023-08-02T12:26:33.896Z,63962.44
2023-08-02T12:29:04.758Z,63949.75
2023-08-02T12:31:43.384Z,63941.56
2023-08-02T12:34:11.788Z,63931.19
2023-08-02T12:36:40.731Z,63940.06
2023-08-02T12:39:09.728Z,63952.00
2023-08-02T12:41:37.855Z,63951.94
2023-08-02T12:44:07.393Z,63939.38
2023-08-02T12:46:35.731Z,63936.13
2023-08-02T12:49:03.951Z,63931.13
2023-08-02T12:51:32.112Z,63927.34
2023-08-02T12:54:00.879Z,63927.91
2023-08-02T12:56:29.221Z,63922.44
2023-08-02T12:58:57.421Z,63937.78
2023-08-02T13:01:27.102Z,63931.25
2023-08-02T13:03:55.374Z,63935.00
2023-08-02T13:06:23.686Z,63927.91
2023-08-02T13:08:52.049Z,63917.44
2023-08-02T13:11:20.163Z,63910.88
2023-08-02T13:13:48.256Z,63908.75
2023-08-02T13:16:16.416Z,63899.91
2023-08-02T13:18:45.958Z,63909.88
2023-08-02T13:21:14.175Z,63926.75
2023-08-02T13:23:42.295Z,63936.09
2023-08-02T13:26:10.358Z,63951.47
2023-08-02T13:28:38.535Z,63968.97
2023-08-02T13:31:06.700Z,63981.03
2023-08-02T13:33:34.845Z,63987.69
2023-08-02T13:36:04.460Z,64009.56
2023-08-02T13:38:32.780Z,64050.16
2023-08-02T13:41:01.053Z,64060.63
2023-08-02T13:43:29.192Z,64051.75
2023-08-02T13:45:57.345Z,64057.31
2023-08-02T13:48:25.479Z,64079.88
2023-08-02T13:50:53.561Z,64216.00
2023-08-02T13:53:23.069Z,64175.94
2023-08-02T13:55:53.570Z,64185.78
2023-08-02T13:58:21.824Z,64167.59
2023-08-02T14:00:49.916Z,64116.59
2023-08-02T14:03:17.943Z,64093.00
2023-08-02T14:05:46.594Z,64116.59
2023-08-02T14:08:14.751Z,64138.56
2023-08-02T14:10:46.452Z,64145.66
2023-08-02T14:13:14.661Z,64187.44
2023-08-02T14:15:43.010Z,64155.00
2023-08-02T14:18:11.209Z,64240.19
2023-08-02T14:20:39.442Z,64307.78
2023-08-02T14:23:07.545Z,64345.09
2023-08-02T14:25:35.697Z,64427.59
2023-08-02T14:28:11.932Z,64374.31
2023-08-02T14:30:40.140Z,64360.56
2023-08-02T14:33:08.304Z,64413.88
2023-08-02T14:35:36.527Z,64294.59
2023-08-02T14:38:07.108Z,64255.53
2023-08-02T14:40:36.354Z,64202.78
2023-08-02T14:43:04.566Z,64226.97
2023-08-02T14:45:34.060Z,64209.94
2023-08-02T14:48:02.349Z,64198.91
2023-08-02T14:50:31.659Z,64205.47
2023-08-02T14:52:59.853Z,64177.53
2023-08-02T14:55:27.903Z,64158.97
2023-08-02T14:57:56.008Z,64150.13
2023-08-02T15:00:24.224Z,64131.38
2023-08-02T15:02:53.826Z,64129.78
2023-08-02T15:05:22.400Z,64119.91
2023-08-02T15:07:50.739Z,64123.16
2023-08-02T15:10:18.981Z,64127.59
2023-08-02T15:12:47.110Z,64132.53
2023-08-02T15:15:15.771Z,64123.13
2023-08-02T15:17:45.329Z,64118.31
2023-08-02T15:20:15.010Z,64139.13
2023-08-02T15:22:43.120Z,64180.84
2023-08-02T15:25:11.289Z,64191.28
2023-08-02T15:27:39.364Z,64242.91
2023-08-02T15:30:08.554Z,64234.72
2023-08-02T15:32:36.650Z,64272.59
2023-08-02T15:35:05.162Z,64298.91
2023-08-02T15:37:34.763Z,64234.16
2023-08-02T15:40:03.916Z,64193.41
2023-08-02T15:42:32.041Z,64193.41
2023-08-02T15:45:02.742Z,64181.41
2023-08-02T15:47:31.602Z,64171.53
2023-08-02T15:49:59.738Z,64152.91
2023-08-02T15:52:27.910Z,64154.41
2023-08-02T15:54:57.424Z,64197.34
2023-08-02T15:57:25.512Z,64179.72
2023-08-02T15:59:53.591Z,64150.59
2023-08-02T16:02:21.716Z,64127.03
2023-08-02T16:04:49.850Z,64125.94
2023-08-02T16:07:19.741Z,64121.00
2023-08-02T16:09:47.835Z,64114.44
2023-08-02T16:12:19.674Z,64099.59
2023-08-02T16:14:47.986Z,64108.28
2023-08-02T16:17:16.158Z,64106.16
2023-08-02T16:19:44.367Z,64095.25
2023-08-02T16:22:12.470Z,64141.81
2023-08-02T16:24:41.001Z,64141.25
2023-08-02T16:27:09.529Z,64149.59
2023-08-02T16:29:39.031Z,64113.88
2023-08-02T16:32:07.675Z,64093.00
2023-08-02T16:34:36.516Z,64078.69
2023-08-02T16:37:04.704Z,64078.19
2023-08-02T16:39:33.593Z,64074.28
2023-08-02T16:42:03.824Z,64063.38
2023-08-02T16:44:32.013Z,64046.88
2023-08-02T16:47:04.075Z,64024.41
2023-08-02T16:49:36.108Z,64028.28
2023-08-02T16:52:04.426Z,64016.16
2023-08-02T16:54:33.245Z,64008.97
2023-08-02T16:57:01.967Z,63986.47
2023-08-02T16:59:30.144Z,63961.91
2023-08-02T17:01:58.207Z,63945.97
2023-08-02T17:04:27.972Z,63896.66
2023-08-02T17:06:56.189Z,63788.22
2023-08-02T17:09:24.342Z,63686.34
2023-08-02T17:11:52.478Z,63613.09
2023-08-02T17:14:20.689Z,63585.22
2023-08-02T17:16:48.903Z,63528.38
2023-08-02T17:19:18.747Z,63527.91
2023-08-02T17:21:49.836Z,63521.84
2023-08-02T17:24:18.876Z,63537.56
2023-08-02T17:26:49.446Z,63491.25
2023-08-02T17:29:18.421Z,63491.16
2023-08-02T17:31:47.691Z,63477.53
2023-08-02T17:34:16.607Z,63437.72
2023-08-02T17:36:45.362Z,63473.78
2023-08-02T17:39:16.640Z,63471.53
2023-08-02T17:41:45.902Z,63480.31
2023-08-02T17:44:15.628Z,63485.84
2023-08-02T17:46:45.599Z,63461.75
2023-08-02T17:49:15.935Z,63451.34
2023-08-02T17:51:45.338Z,63414.84
2023-08-02T17:54:16.399Z,63386.34
2023-08-02T17:56:44.618Z,63349.31
2023-08-02T17:59:14.494Z,63351.38
2023-08-02T18:01:47.674Z,63306.66
2023-08-02T18:04:18.190Z,63212.94
2023-08-02T18:06:46.379Z,63232.47
2023-08-02T18:09:17.635Z,63200.38
2023-08-02T18:11:51.304Z,63197.66
2023-08-02T18:14:19.609Z,63215.16
2023-08-02T18:16:48.716Z,63225.53
2023-08-02T18:19:16.979Z,63238.06
2023-08-02T18:21:46.388Z,63260.41
2023-08-02T18:24:17.466Z,63277.31
2023-08-02T18:26:48.398Z,63301.81
2023-08-02T18:29:18.374Z,63326.88
2023-08-02T18:31:46.879Z,63312.22
2023-08-02T18:34:15.191Z,63342.16
2023-08-02T18:36:43.435Z,63328.03
2023-08-02T18:39:11.769Z,63321.38
2023-08-02T18:41:41.592Z,63314.34
2023-08-02T18:44:10.413Z,63335.06
2023-08-02T18:46:39.461Z,63332.31
2023-08-02T18:49:08.207Z,63309.47
2023-08-02T18:51:36.546Z,63301.19
2023-08-02T18:54:05.203Z,63322.03
2023-08-02T18:56:33.469Z,63306.16
2023-08-02T18:59:03.134Z,63291.53
2023-08-02T19:01:31.506Z,63281.03
2023-08-02T19:03:59.896Z,63283.25
2023-08-02T19:06:29.312Z,63287.63
2023-08-02T19:08:59.399Z,63274.53
2023-08-02T19:11:27.740Z,63260.91
2023-08-02T19:13:56.165Z,63251.06
2023-08-02T19:16:25.832Z,63259.25
2023-08-02T19:18:54.076Z,63247.28
2023-08-02T19:21:22.229Z,63236.34
2023-08-02T19:23:50.361Z,63241.81
2023-08-02T19:26:23.406Z,63242.41
2023-08-02T19:28:52.804Z,63243.44
2023-08-02T19:31:21.911Z,63242.38
2023-08-02T19:33:54.395Z,63240.72
2023-08-02T19:36:23.986Z,63242.97
2023-08-02T19:38:52.102Z,63247.31
2023-08-02T19:41:26.173Z,63235.81
2023-08-02T19:43:55.473Z,63223.34
2023-08-02T19:46:26.142Z,63229.81
2023-08-02T19:48:55.698Z,63231.50
2023-08-02T19:51:25.231Z,63223.78
2023-08-02T19:53:54.018Z,63221.69
2023-08-02T19:56:23.772Z,63223.88
2023-08-02T19:58:52.780Z,63227.03
2023-08-02T20:01:21.311Z,63236.78
2023-08-02T20:03:49.726Z,63233.59
2023-08-02T20:06:19.443Z,63225.03
2023-08-02T20:08:49.356Z,63223.34
2023-08-02T20:11:17.598Z,63198.88
2023-08-02T20:13:49.346Z,63230.91
2023-08-02T20:16:19.963Z,63232.59
2023-08-02T20:18:49.589Z,63235.81
2023-08-02T20:21:22.908Z,63227.13
2023-08-02T20:24:04.378Z,63239.56
2023-08-02T20:26:34.323Z,63236.34
2023-08-02T20:29:02.425Z,63222.19
2023-08-02T20:31:39.697Z,63251.03
2023-08-02T20:34:12.135Z,63246.66
2023-08-02T20:36:42.953Z,63251.06
2023-08-02T20:39:13.381Z,63252.75
2023-08-02T20:41:43.590Z,63251.75
2023-08-02T20:44:13.810Z,63254.91
2023-08-02T20:46:42.821Z,63258.28
2023-08-02T20:49:13.838Z,63265.81
2023-08-02T20:51:46.948Z,63268.97
2023-08-02T20:54:15.932Z,63253.81
2023-08-02T20:56:46.789Z,63241.84
2023-08-02T20:59:17.224Z,63245.63
2023-08-02T21:01:47.139Z,63246.72
2023-08-02T21:04:17.137Z,63253.81
2023-08-02T21:07:01.128Z,63250.53
2023-08-02T21:09:33.851Z,63241.81
2023-08-02T21:12:03.698Z,63247.88
2023-08-02T21:14:31.879Z,63242.38
2023-08-02T21:17:02.435Z,63226.06
2023-08-02T21:19:35.823Z,63226.00
2023-08-02T21:22:11.935Z,63241.81
2023-08-02T21:24:40.296Z,63260.97
2023-08-02T21:27:14.258Z,63269.06
2023-08-02T21:29:48.151Z,63254.34
2023-08-02T21:32:21.210Z,63247.81
2023-08-02T21:34:58.072Z,63245.63
2023-08-02T21:37:28.676Z,63245.13
2023-08-02T21:40:02.846Z,63246.16
2023-08-02T21:42:33.746Z,63247.72
2023-08-02T21:45:01.891Z,63228.19
2023-08-02T21:47:30.069Z,63213.00
2023-08-02T21:49:59.045Z,63230.38
2023-08-02T21:52:32.194Z,63236.84
2023-08-02T21:55:00.344Z,63233.69
2023-08-02T21:57:32.241Z,63242.25
2023-08-02T22:00:00.410Z,63236.34
2023-08-02T22:02:33.283Z,63214.03
2023-08-02T22:05:01.487Z,63228.13
2023-08-02T22:07:33.775Z,63208.03
2023-08-02T22:10:05.817Z,63221.66
2023-08-02T22:12:34.025Z,63227.56
2023-08-02T22:15:05.849Z,63218.38
2023-08-02T22:17:35.682Z,63211.28
2023-08-02T22:20:03.959Z,63215.03
2023-08-02T22:22:33.465Z,63203.06
2023-08-02T22:25:01.546Z,63207.03
2023-08-02T22:27:29.637Z,63217.84
2023-08-02T22:29:59.909Z,63209.22
2023-08-02T22:32:28.462Z,63215.66
2023-08-02T22:34:56.629Z,63207.47
2023-08-02T22:37:24.783Z,63214.03
2023-08-02T22:39:56.002Z,63226.06
2023-08-02T22:42:24.081Z,63208.56
2023-08-02T22:44:52.162Z,63215.03
2023-08-02T22:47:20.273Z,63219.41
2023-08-02T22:52:21.486Z,63221.66
2023-08-02T22:54:49.874Z,63211.88
2023-08-02T22:57:24.432Z,63235.22
2023-08-02T22:59:53.602Z,63234.72
2023-08-02T23:02:22.082Z,63233.09
2023-08-02T23:04:53.535Z,63238.44
2023-08-02T23:07:23.115Z,63230.31
2023-08-02T23:09:54.217Z,63226.56
2023-08-02T23:12:23.717Z,63230.88
2023-08-02T23:14:59.045Z,63226.56
2023-08-02T23:17:27.636Z,63227.13
2023-08-02T23:19:55.815Z,63218.91
2023-08-02T23:22:23.909Z,63225.97
2023-08-02T23:24:52.030Z,63210.81
2023-08-02T23:27:27.873Z,63206.44
2023-08-02T23:29:56.116Z,63212.44
2023-08-02T23:32:28.053Z,63184.16
2023-08-02T23:34:56.215Z,63179.69
2023-08-02T23:37:24.315Z,63199.78
2023-08-02T23:39:52.447Z,63188.97
2023-08-02T23:42:20.538Z,63190.00
2023-08-02T23:44:50.052Z,63179.69
2023-08-02T23:47:18.172Z,63190.00
2023-08-02T23:49:46.407Z,63197.63
2023-08-02T23:52:14.624Z,63172.13
2023-08-02T23:54:42.759Z,63178.66
2023-08-02T23:57:10.849Z,63168.78
2023-08-02T23:59:38.979Z,63168.91
